Time;durP1;ratioP1;P1;durP2;ratioP2;P2;SDS_P1;SDS_P2;PMS_P1;PMS_P2;Temp;Humidity;BMP_temperature;BMP_pressure;BME280_temperature;BME280_humidity;BME280_pressure;Samples;Min_cycle;Max_cycle;Signal;HPM_P1;HPM_P2
2021/09/20 00:01:09;;;;;;;4.87;4.47;;;;;;;;;;5127415;27;25034;-59
2021/09/20 00:03:34;;;;;;;4.50;4.10;;;;;;;;;;5127683;27;24421;-59
2021/09/20 00:05:59;;;;;;;5.10;4.70;;;;;;;;;;5127412;27;24424;-58
2021/09/20 00:08:24;;;;;;;5.00;4.60;;;;;;;;;;5125212;27;24545;-59
2021/09/20 00:10:50;;;;;;;5.07;4.67;;;;;;;;;;5127638;27;24409;-59
2021/09/20 00:13:16;;;;;;;5.25;4.80;;;;;;;;;;5127565;27;24416;-60
2021/09/20 00:15:41;;;;;;;5.63;5.13;;;;;;;;;;5127277;27;24413;-59
2021/09/20 00:18:06;;;;;;;5.40;5.00;;;;;;;;;;5128195;27;24409;-59
2021/09/20 00:20:31;;;;;;;6.40;5.90;;;;;;;;;;5127802;27;24897;-59
2021/09/20 00:22:56;;;;;;;5.60;5.20;;;;;;;;;;5127568;27;24413;-59
2021/09/20 00:25:22;;;;;;;6.40;5.90;;;;;;;;;;5127142;27;24890;-59
2021/09/20 00:27:47;;;;;;;8.95;8.13;;;;;;;;;;5125998;27;24432;-59
2021/09/20 00:30:12;;;;;;;8.37;7.63;;;;;;;;;;5127800;27;24457;-59
2021/09/20 00:32:37;;;;;;;9.90;9.00;;;;;;;;;;5127846;27;24425;-59
2021/09/20 00:35:03;;;;;;;10.90;9.90;;;;;;;;;;5126832;27;24641;-59
2021/09/20 00:37:28;;;;;;;9.20;8.40;;;;;;;;;;5125474;27;24420;-59
2021/09/20 00:39:53;;;;;;;8.10;7.40;;;;;;;;;;5127672;27;24765;-59
2021/09/20 00:42:19;;;;;;;8.73;7.93;;;;;;;;;;5127455;27;24496;-59
2021/09/20 00:44:44;;;;;;;8.27;7.47;;;;;;;;;;5126976;27;24425;-59
2021/09/20 00:47:09;;;;;;;8.63;7.93;;;;;;;;;;5126521;27;24417;-59
2021/09/20 00:49:34;;;;;;;7.50;6.90;;;;;;;;;;5127134;27;24411;-59
2021/09/20 00:51:59;;;;;;;6.97;6.37;;;;;;;;;;5127410;27;24497;-59
2021/09/20 00:54:25;;;;;;;7.43;6.82;;;;;;;;;;5126832;27;24417;-59
2021/09/20 00:56:50;;;;;;;8.50;7.80;;;;;;;;;;5126373;27;24420;-59
2021/09/20 00:59:17;;;;;;;7.90;7.20;;;;;;;;;;5126998;27;24549;-59
2021/09/20 01:01:42;;;;;;;8.00;7.30;;;;;;;;;;5126803;27;24794;-58
2021/09/20 01:04:08;;;;;;;8.45;7.75;;;;;;;;;;5127173;27;25044;-60
2021/09/20 01:06:33;;;;;;;8.20;7.50;;;;;;;;;;5126309;27;24412;-58
2021/09/20 01:08:58;;;;;;;8.60;7.80;;;;;;;;;;5116415;27;24754;-59
2021/09/20 01:11:23;;;;;;;8.50;7.80;;;;;;;;;;5122371;27;24963;-59
2021/09/20 01:13:48;;;;;;;8.20;7.40;;;;;;;;;;5126667;27;24417;-58
2021/09/20 01:16:14;;;;;;;6.97;6.47;;;;;;;;;;5126782;27;24440;-59
2021/09/20 01:18:39;;;;;;;7.40;6.80;;;;;;;;;;5126992;27;24982;-59
2021/09/20 01:21:04;;;;;;;7.60;7.00;;;;;;;;;;5127409;27;24392;-59
2021/09/20 01:23:29;;;;;;;7.70;7.00;;;;;;;;;;5127007;27;24416;-58
2021/09/20 01:25:54;;;;;;;7.97;7.33;;;;;;;;;;5126331;28;24458;-59
2021/09/20 01:28:20;;;;;;;8.60;7.90;;;;;;;;;;5122690;28;24535;-59
2021/09/20 01:30:45;;;;;;;7.70;7.10;;;;;;;;;;5125071;28;24516;-60
2021/09/20 01:33:10;;;;;;;7.68;6.97;;;;;;;;;;5125073;28;24437;-59
2021/09/20 01:35:35;;;;;;;7.67;7.07;;;;;;;;;;5124355;28;24408;-58
2021/09/20 01:38:01;;;;;;;7.63;7.03;;;;;;;;;;5125030;28;24837;-59
2021/09/20 01:40:27;;;;;;;7.32;6.72;;;;;;;;;;5124334;28;24421;-60
2021/09/20 01:42:52;;;;;;;7.95;7.25;;;;;;;;;;5125745;28;24819;-59
2021/09/20 01:45:17;;;;;;;7.60;7.00;;;;;;;;;;5126455;27;24421;-58
2021/09/20 01:47:43;;;;;;;8.10;7.40;;;;;;;;;;5129432;27;25242;-59
2021/09/20 01:50:10;;;;;;;7.13;6.53;;;;;;;;;;5130144;27;24509;-59
2021/09/20 01:52:36;;;;;;;7.10;6.50;;;;;;;;;;5128528;27;24443;-59
2021/09/20 01:55:01;;;;;;;6.90;6.30;;;;;;;;;;5130297;27;24980;-59
2021/09/20 01:57:26;;;;;;;6.73;6.07;;;;;;;;;;5130260;27;24413;-59
2021/09/20 01:59:52;;;;;;;6.10;5.60;;;;;;;;;;5130323;27;25036;-59
2021/09/20 02:02:17;;;;;;;6.17;5.67;;;;;;;;;;5129262;27;24424;-59
2021/09/20 02:04:42;;;;;;;5.88;5.38;;;;;;;;;;5129747;27;24520;-59
2021/09/20 02:07:07;;;;;;;5.87;5.20;;;;;;;;;;5129787;27;24450;-59
2021/09/20 02:09:32;;;;;;;5.03;4.63;;;;;;;;;;5128418;27;24420;-58
2021/09/20 02:11:58;;;;;;;5.30;4.90;;;;;;;;;;5124505;27;24793;-58
2021/09/20 02:14:23;;;;;;;4.47;4.18;;;;;;;;;;5130485;27;24405;-60
2021/09/20 02:16:48;;;;;;;5.28;4.80;;;;;;;;;;5130413;27;24489;-58
2021/09/20 02:19:14;;;;;;;4.78;4.38;;;;;;;;;;5129138;27;24440;-58
2021/09/20 02:21:39;;;;;;;5.25;4.85;;;;;;;;;;5124332;27;24454;-59
2021/09/20 02:24:04;;;;;;;4.80;4.40;;;;;;;;;;5130217;27;24517;-58
2021/09/20 02:26:30;;;;;;;5.00;4.60;;;;;;;;;;5130942;27;25000;-58
2021/09/20 02:28:55;;;;;;;4.90;4.50;;;;;;;;;;5129309;27;24484;-59
2021/09/20 02:31:20;;;;;;;4.80;4.40;;;;;;;;;;5130062;27;25010;-59
2021/09/20 02:33:45;;;;;;;4.50;4.10;;;;;;;;;;5128707;27;25177;-59
2021/09/20 02:36:11;;;;;;;4.80;4.40;;;;;;;;;;5129995;27;24462;-59
2021/09/20 02:38:36;;;;;;;4.40;4.10;;;;;;;;;;5129624;27;25173;-59
2021/09/20 02:41:02;;;;;;;4.20;3.90;;;;;;;;;;5129248;27;24428;-59
2021/09/20 02:43:27;;;;;;;5.30;4.80;;;;;;;;;;5129325;27;25053;-59
2021/09/20 02:45:52;;;;;;;5.10;4.70;;;;;;;;;;5129289;27;25901;-60
2021/09/20 02:48:18;;;;;;;5.20;4.80;;;;;;;;;;5126148;27;24438;-59
2021/09/20 02:50:43;;;;;;;4.70;4.30;;;;;;;;;;5129677;27;24452;-59
2021/09/20 02:53:08;;;;;;;4.47;4.17;;;;;;;;;;5128062;27;24463;-59
2021/09/20 02:55:33;;;;;;;4.80;4.40;;;;;;;;;;5129175;27;24843;-59
2021/09/20 02:57:59;;;;;;;4.20;3.90;;;;;;;;;;5128048;27;24413;-58
2021/09/20 03:00:24;;;;;;;4.90;4.50;;;;;;;;;;5128897;27;25067;-59
2021/09/20 03:02:49;;;;;;;4.50;4.20;;;;;;;;;;5129182;27;24416;-59
2021/09/20 03:05:14;;;;;;;4.60;4.20;;;;;;;;;;5121247;27;24487;-58
2021/09/20 03:07:39;;;;;;;4.67;4.37;;;;;;;;;;5127647;27;25033;-59
2021/09/20 03:10:05;;;;;;;4.57;4.28;;;;;;;;;;5129002;27;24397;-59
2021/09/20 03:12:30;;;;;;;4.80;4.40;;;;;;;;;;5127116;27;24412;-59
2021/09/20 03:14:55;;;;;;;4.40;4.10;;;;;;;;;;5128511;27;25026;-59
2021/09/20 03:17:20;;;;;;;4.07;3.78;;;;;;;;;;5129004;27;24409;-59
2021/09/20 03:19:46;;;;;;;4.43;4.03;;;;;;;;;;5120475;27;24816;-59
2021/09/20 03:22:12;;;;;;;3.90;3.60;;;;;;;;;;5128220;27;24512;-59
2021/09/20 03:24:37;;;;;;;4.17;3.87;;;;;;;;;;5128671;27;24508;-59
2021/09/20 03:27:02;;;;;;;4.70;4.40;;;;;;;;;;5128624;27;24433;-59
2021/09/20 03:29:27;;;;;;;4.53;4.23;;;;;;;;;;5128273;27;24424;-59
2021/09/20 03:31:52;;;;;;;4.43;4.13;;;;;;;;;;5128895;27;24415;-59
2021/09/20 03:34:17;;;;;;;4.45;4.05;;;;;;;;;;5127601;27;24553;-59
2021/09/20 03:36:42;;;;;;;4.10;3.80;;;;;;;;;;5128771;27;24417;-58
2021/09/20 03:39:08;;;;;;;4.68;4.38;;;;;;;;;;5127832;27;24423;-59
2021/09/20 03:41:33;;;;;;;4.20;3.90;;;;;;;;;;5127862;27;24479;-59
2021/09/20 03:43:58;;;;;;;4.50;4.10;;;;;;;;;;5126776;27;24425;-59
2021/09/20 03:46:23;;;;;;;3.97;3.60;;;;;;;;;;5128527;27;24439;-59
2021/09/20 03:48:49;;;;;;;4.37;4.07;;;;;;;;;;5124023;27;24421;-58
2021/09/20 03:51:14;;;;;;;4.30;4.00;;;;;;;;;;5122532;27;24445;-59
2021/09/20 03:53:39;;;;;;;4.87;4.47;;;;;;;;;;5128675;27;24962;-59
2021/09/20 03:56:04;;;;;;;4.68;4.38;;;;;;;;;;5115949;27;24482;-59
2021/09/20 03:58:29;;;;;;;4.50;4.13;;;;;;;;;;5124175;27;24966;-60
2021/09/20 04:00:55;;;;;;;5.00;4.60;;;;;;;;;;5127754;27;24397;-60
2021/09/20 04:03:20;;;;;;;4.30;4.00;;;;;;;;;;5128327;27;24413;-60
2021/09/20 04:05:45;;;;;;;4.32;4.03;;;;;;;;;;5127994;27;25023;-60
2021/09/20 04:08:14;;;;;;;4.33;3.93;;;;;;;;;;5115626;27;24410;-59
2021/09/20 04:10:39;;;;;;;4.22;3.92;;;;;;;;;;5123587;27;24492;-60
2021/09/20 04:13:04;;;;;;;4.57;4.20;;;;;;;;;;5128530;27;24523;-59
2021/09/20 04:15:30;;;;;;;5.25;4.78;;;;;;;;;;5128359;27;24457;-59
2021/09/20 04:17:55;;;;;;;4.70;4.30;;;;;;;;;;5127119;27;24425;-60
2021/09/20 04:20:20;;;;;;;5.55;5.15;;;;;;;;;;5115370;27;24409;-59
2021/09/20 04:22:45;;;;;;;4.50;4.13;;;;;;;;;;5127989;27;24442;-60
2021/09/20 04:25:11;;;;;;;4.90;4.50;;;;;;;;;;5123540;27;24536;-59
2021/09/20 04:27:36;;;;;;;6.10;5.60;;;;;;;;;;5111184;27;24409;-60
2021/09/20 04:30:02;;;;;;;5.15;4.75;;;;;;;;;;5112092;27;24413;-60
2021/09/20 04:32:27;;;;;;;5.10;4.70;;;;;;;;;;5101154;28;24513;-60
2021/09/20 04:34:52;;;;;;;4.90;4.50;;;;;;;;;;5121155;27;24397;-61
2021/09/20 04:37:18;;;;;;;4.30;3.90;;;;;;;;;;5121770;27;24971;-60
2021/09/20 04:39:43;;;;;;;4.60;4.20;;;;;;;;;;5116577;27;24428;-58
2021/09/20 04:42:09;;;;;;;5.25;4.75;;;;;;;;;;5123643;27;24419;-58
2021/09/20 04:44:34;;;;;;;5.00;4.60;;;;;;;;;;5123811;27;24432;-58
2021/09/20 04:46:59;;;;;;;5.13;4.80;;;;;;;;;;5124441;27;24552;-59
2021/09/20 04:49:24;;;;;;;5.30;4.90;;;;;;;;;;5124126;27;24372;-60
2021/09/20 04:51:49;;;;;;;5.27;4.83;;;;;;;;;;5124229;27;24393;-60
2021/09/20 04:54:15;;;;;;;5.32;4.88;;;;;;;;;;5122487;27;24431;-59
2021/09/20 04:56:40;;;;;;;5.10;4.70;;;;;;;;;;5115883;27;24489;-60
2021/09/20 04:59:05;;;;;;;5.20;4.70;;;;;;;;;;5122995;27;24748;-59
2021/09/20 05:01:30;;;;;;;5.30;4.90;;;;;;;;;;5111145;27;24406;-61
2021/09/20 05:03:55;;;;;;;5.65;5.15;;;;;;;;;;5101258;28;24398;-60
2021/09/20 05:06:20;;;;;;;5.90;5.40;;;;;;;;;;5103398;28;24414;-61
2021/09/20 05:08:46;;;;;;;4.90;4.50;;;;;;;;;;5101762;28;25207;-60
2021/09/20 05:11:11;;;;;;;5.63;5.13;;;;;;;;;;5106927;27;24468;-60
2021/09/20 05:13:36;;;;;;;5.10;4.70;;;;;;;;;;5124168;27;24955;-59
2021/09/20 05:16:01;;;;;;;4.50;4.20;;;;;;;;;;5114006;27;24448;-60
2021/09/20 05:18:26;;;;;;;5.03;4.53;;;;;;;;;;5107173;27;24989;-59
2021/09/20 05:20:51;;;;;;;4.90;4.50;;;;;;;;;;5110866;27;25049;-59
2021/09/20 05:23:17;;;;;;;5.10;4.70;;;;;;;;;;5114722;27;24561;-59
2021/09/20 05:25:42;;;;;;;5.07;4.68;;;;;;;;;;5107158;27;24537;-59
2021/09/20 05:28:07;;;;;;;5.80;5.30;;;;;;;;;;5121791;28;24452;-59
2021/09/20 05:30:32;;;;;;;5.90;5.40;;;;;;;;;;5111576;28;24421;-60
2021/09/20 05:32:58;;;;;;;5.47;4.87;;;;;;;;;;5098291;28;24552;-60
2021/09/20 05:35:24;;;;;;;5.20;4.80;;;;;;;;;;5100925;28;24431;-60
2021/09/20 05:37:49;;;;;;;5.37;4.97;;;;;;;;;;5120406;28;24405;-62
2021/09/20 05:40:15;;;;;;;6.50;5.90;;;;;;;;;;5120554;28;24484;-60
2021/09/20 05:42:42;;;;;;;5.13;4.80;;;;;;;;;;5122107;28;24971;-60
2021/09/20 05:45:07;;;;;;;5.00;4.60;;;;;;;;;;5122067;28;24420;-60
2021/09/20 05:47:32;;;;;;;4.80;4.40;;;;;;;;;;5118642;28;24389;-60
2021/09/20 05:49:58;;;;;;;6.00;5.50;;;;;;;;;;5116724;28;24401;-59
2021/09/20 05:52:25;;;;;;;5.00;4.60;;;;;;;;;;5118592;28;24401;-60
2021/09/20 05:54:50;;;;;;;5.60;5.10;;;;;;;;;;5111064;28;24437;-59
2021/09/20 05:57:15;;;;;;;5.78;5.28;;;;;;;;;;5121772;28;24447;-60
2021/09/20 05:59:40;;;;;;;5.33;4.93;;;;;;;;;;5117771;28;24448;-60
2021/09/20 06:02:06;;;;;;;6.10;5.60;;;;;;;;;;5103178;28;24601;-60
2021/09/20 06:04:31;;;;;;;6.40;5.90;;;;;;;;;;5102557;28;24428;-60
2021/09/20 06:06:56;;;;;;;6.10;5.60;;;;;;;;;;5103627;28;24382;-59
2021/09/20 06:09:22;;;;;;;6.40;5.67;;;;;;;;;;5105952;28;24825;-60
2021/09/20 06:11:47;;;;;;;5.63;5.03;;;;;;;;;;5119105;28;24852;-59
2021/09/20 06:14:12;;;;;;;6.53;5.93;;;;;;;;;;5107220;28;24984;-60
2021/09/20 06:16:37;;;;;;;6.60;6.00;;;;;;;;;;5119806;28;24413;-59
2021/09/20 06:19:02;;;;;;;5.40;5.00;;;;;;;;;;5119995;28;24489;-60
2021/09/20 06:21:27;;;;;;;5.60;5.20;;;;;;;;;;5121492;28;24394;-60
2021/09/20 06:23:53;;;;;;;5.40;4.90;;;;;;;;;;5120107;28;24417;-60
2021/09/20 06:26:18;;;;;;;4.90;4.50;;;;;;;;;;5119555;28;24975;-60
2021/09/20 06:28:43;;;;;;;5.40;4.90;;;;;;;;;;5118108;28;24402;-60
2021/09/20 06:31:09;;;;;;;5.55;5.05;;;;;;;;;;5121767;28;24466;-60
2021/09/20 06:33:35;;;;;;;4.90;4.50;;;;;;;;;;5123715;27;24505;-60
2021/09/20 06:36:00;;;;;;;5.55;5.10;;;;;;;;;;5127427;27;24445;-60
2021/09/20 06:38:26;;;;;;;5.30;4.90;;;;;;;;;;5127093;27;25085;-62
2021/09/20 06:40:51;;;;;;;4.90;4.50;;;;;;;;;;5126423;27;24413;-60
2021/09/20 06:43:17;;;;;;;5.50;5.10;;;;;;;;;;5121974;27;24413;-60
2021/09/20 06:45:42;;;;;;;4.97;4.57;;;;;;;;;;5119159;27;24420;-60
2021/09/20 06:48:07;;;;;;;4.60;4.30;;;;;;;;;;5108798;27;24996;-60
2021/09/20 06:50:32;;;;;;;4.60;4.20;;;;;;;;;;5124068;27;24573;-60
2021/09/20 06:52:58;;;;;;;4.50;4.20;;;;;;;;;;5120344;27;24556;-60
2021/09/20 06:55:23;;;;;;;5.70;5.10;;;;;;;;;;5124084;27;24469;-60
2021/09/20 06:57:48;;;;;;;5.43;4.60;;;;;;;;;;5126656;27;24518;-60
2021/09/20 07:00:14;;;;;;;4.90;4.50;;;;;;;;;;5115129;27;24406;-60
2021/09/20 07:02:39;;;;;;;4.85;4.40;;;;;;;;;;5110831;27;24762;-59
2021/09/20 07:05:05;;;;;;;4.30;4.00;;;;;;;;;;5106186;27;24999;-61
2021/09/20 07:07:31;;;;;;;5.63;4.75;;;;;;;;;;5102674;28;24396;-61
2021/09/20 07:09:56;;;;;;;5.13;4.72;;;;;;;;;;5100876;28;24401;-59
2021/09/20 07:12:21;;;;;;;5.50;5.00;;;;;;;;;;5100779;28;24394;-59
2021/09/20 07:14:46;;;;;;;5.28;4.88;;;;;;;;;;5104553;28;24734;-59
2021/09/20 07:17:11;;;;;;;4.20;3.90;;;;;;;;;;5104521;28;24481;-59
2021/09/20 07:19:36;;;;;;;4.37;4.07;;;;;;;;;;5102113;28;24424;-58
2021/09/20 07:22:02;;;;;;;4.60;4.20;;;;;;;;;;5100789;28;24427;-59
2021/09/20 07:24:27;;;;;;;4.60;4.30;;;;;;;;;;5103043;28;24520;-58
2021/09/20 07:26:52;;;;;;;5.50;5.10;;;;;;;;;;5104678;28;24409;-58
2021/09/20 07:29:17;;;;;;;4.40;4.10;;;;;;;;;;5102716;28;24434;-59
2021/09/20 07:31:43;;;;;;;5.10;4.70;;;;;;;;;;5084190;28;24467;-59
2021/09/20 07:34:08;;;;;;;4.20;3.90;;;;;;;;;;5112233;27;24433;-58
2021/09/20 07:36:33;;;;;;;4.27;3.97;;;;;;;;;;5119437;27;25015;-60
2021/09/20 07:38:58;;;;;;;4.67;4.37;;;;;;;;;;5123114;27;24441;-60
2021/09/20 07:41:23;;;;;;;5.40;4.90;;;;;;;;;;5124448;27;24377;-60
2021/09/20 07:43:49;;;;;;;4.70;4.30;;;;;;;;;;5124773;27;24777;-60
2021/09/20 07:46:20;;;;;;;5.70;5.30;;;;;;;;;;5124826;27;24987;-60
2021/09/20 07:48:45;;;;;;;5.32;4.50;;;;;;;;;;5118815;27;24936;-60
2021/09/20 07:51:10;;;;;;;5.60;4.93;;;;;;;;;;5121130;27;24389;-59
2021/09/20 07:53:36;;;;;;;5.07;4.67;;;;;;;;;;5122644;27;25056;-59
2021/09/20 07:56:01;;;;;;;4.60;4.20;;;;;;;;;;5124393;27;25026;-58
2021/09/20 07:58:26;;;;;;;5.20;4.60;;;;;;;;;;5122823;27;24431;-58
2021/09/20 08:00:51;;;;;;;4.90;4.50;;;;;;;;;;5123256;27;25196;-58
2021/09/20 08:03:16;;;;;;;5.83;5.23;;;;;;;;;;5122415;27;24524;-58
2021/09/20 08:05:41;;;;;;;4.90;4.50;;;;;;;;;;5118843;27;25204;-58
2021/09/20 08:08:07;;;;;;;4.83;4.43;;;;;;;;;;5119139;27;24538;-58
2021/09/20 08:10:33;;;;;;;5.50;5.10;;;;;;;;;;5122055;27;24974;-58
2021/09/20 08:12:59;;;;;;;6.23;5.73;;;;;;;;;;5114725;27;24436;-59
2021/09/20 08:15:25;;;;;;;7.40;6.37;;;;;;;;;;5111950;27;24879;-58
2021/09/20 08:17:51;;;;;;;7.63;6.25;;;;;;;;;;5118761;27;24970;-58
2021/09/20 08:20:16;;;;;;;6.40;5.90;;;;;;;;;;5102089;28;24438;-59
2021/09/20 08:22:41;;;;;;;7.07;6.47;;;;;;;;;;5121931;27;24607;-58
2021/09/20 08:25:07;;;;;;;6.30;5.70;;;;;;;;;;5124319;27;24413;-59
2021/09/20 08:27:32;;;;;;;6.50;6.00;;;;;;;;;;5122520;27;24529;-59
2021/09/20 08:29:57;;;;;;;6.53;5.97;;;;;;;;;;5123937;27;24406;-59
2021/09/20 08:32:23;;;;;;;6.75;6.10;;;;;;;;;;5119402;27;24756;-58
2021/09/20 08:34:48;;;;;;;6.63;6.03;;;;;;;;;;5118134;27;24496;-58
2021/09/20 08:37:13;;;;;;;6.80;6.27;;;;;;;;;;5119929;27;24805;-59
2021/09/20 08:39:38;;;;;;;6.40;5.90;;;;;;;;;;5123275;27;24534;-59
2021/09/20 08:42:03;;;;;;;7.50;6.80;;;;;;;;;;5123919;27;24401;-59
2021/09/20 08:44:29;;;;;;;6.27;5.77;;;;;;;;;;5121747;27;24940;-58
2021/09/20 08:46:54;;;;;;;7.10;6.40;;;;;;;;;;5121095;27;24438;-58
2021/09/20 08:49:20;;;;;;;6.40;5.90;;;;;;;;;;5118045;27;24385;-60
2021/09/20 08:51:46;;;;;;;5.60;5.10;;;;;;;;;;5123079;27;24485;-59
2021/09/20 08:54:11;;;;;;;6.03;5.53;;;;;;;;;;5123247;27;24508;-59
2021/09/20 08:56:36;;;;;;;5.43;4.93;;;;;;;;;;5120783;27;24426;-59
2021/09/20 08:59:02;;;;;;;6.20;5.70;;;;;;;;;;5123232;27;24384;-59
2021/09/20 09:01:27;;;;;;;5.70;5.20;;;;;;;;;;5117391;27;24844;-59
2021/09/20 09:03:52;;;;;;;6.40;5.90;;;;;;;;;;5119302;27;24983;-59
2021/09/20 09:06:27;;;;;;;6.30;5.70;;;;;;;;;;5121669;27;25015;-59
2021/09/20 09:08:52;;;;;;;5.47;4.97;;;;;;;;;;5122713;27;24480;-59
2021/09/20 09:11:18;;;;;;;5.93;5.43;;;;;;;;;;5122936;27;24489;-59
2021/09/20 09:13:44;;;;;;;7.03;6.33;;;;;;;;;;5118688;27;24916;-59
2021/09/20 09:16:17;;;;;;;6.40;5.80;;;;;;;;;;5119051;27;24378;-59
2021/09/20 09:18:57;;;;;;;5.40;4.90;;;;;;;;;;5119705;27;24502;-60
2021/09/20 09:21:26;;;;;;;5.05;4.65;;;;;;;;;;5120828;27;24397;-59
2021/09/20 09:23:58;;;;;;;5.28;4.80;;;;;;;;;;5123033;27;24840;-58
2021/09/20 09:26:23;;;;;;;5.25;4.85;;;;;;;;;;5117267;27;24385;-59
2021/09/20 09:28:51;;;;;;;5.90;5.40;;;;;;;;;;5119156;27;24415;-58
2021/09/20 09:31:17;;;;;;;5.50;5.00;;;;;;;;;;5119153;28;24442;-59
2021/09/20 09:33:46;;;;;;;5.33;4.83;;;;;;;;;;5122713;28;24968;-59
2021/09/20 09:36:14;;;;;;;5.28;4.63;;;;;;;;;;5123040;28;24397;-59
2021/09/20 09:38:56;;;;;;;6.40;5.80;;;;;;;;;;5120994;28;24795;-59
2021/09/20 09:41:31;;;;;;;4.70;4.30;;;;;;;;;;5117218;28;24737;-59
2021/09/20 09:44:01;;;;;;;4.78;3.83;;;;;;;;;;5117342;28;24430;-59
2021/09/20 09:46:26;;;;;;;4.70;4.30;;;;;;;;;;5119411;28;24408;-59
2021/09/20 09:48:53;;;;;;;5.30;4.90;;;;;;;;;;5122726;28;24385;-59
2021/09/20 09:51:18;;;;;;;5.10;4.40;;;;;;;;;;5120945;28;24421;-59
2021/09/20 09:53:44;;;;;;;4.80;4.40;;;;;;;;;;5122817;28;24442;-58
2021/09/20 09:56:18;;;;;;;4.18;3.88;;;;;;;;;;5119177;28;24909;-59
2021/09/20 09:58:52;;;;;;;4.88;4.50;;;;;;;;;;5117258;28;24953;-59
2021/09/20 10:01:18;;;;;;;5.25;4.75;;;;;;;;;;5121073;28;25236;-59
2021/09/20 10:04:02;;;;;;;5.50;5.00;;;;;;;;;;5120403;28;24424;-59
2021/09/20 10:06:27;;;;;;;4.70;4.30;;;;;;;;;;5120936;28;24951;-60
2021/09/20 10:08:53;;;;;;;5.13;4.70;;;;;;;;;;5124517;27;24396;-59
2021/09/20 10:11:18;;;;;;;5.50;4.80;;;;;;;;;;5123080;27;24698;-59
2021/09/20 10:13:43;;;;;;;5.50;5.10;;;;;;;;;;5120971;27;25415;-59
2021/09/20 10:16:09;;;;;;;5.00;4.60;;;;;;;;;;5121209;27;24396;-59
2021/09/20 10:18:34;;;;;;;6.20;5.50;;;;;;;;;;5124315;27;24392;-59
2021/09/20 10:20:59;;;;;;;5.30;4.90;;;;;;;;;;5126318;27;24526;-59
2021/09/20 10:23:25;;;;;;;5.47;5.07;;;;;;;;;;5124723;27;24416;-59
2021/09/20 10:25:50;;;;;;;4.95;4.65;;;;;;;;;;5103995;27;24459;-59
2021/09/20 10:28:16;;;;;;;4.63;4.33;;;;;;;;;;5122865;27;24410;-60
2021/09/20 10:30:42;;;;;;;5.30;4.90;;;;;;;;;;5116438;27;24776;-59
2021/09/20 10:33:08;;;;;;;6.30;5.80;;;;;;;;;;5101915;28;24417;-59
2021/09/20 10:35:52;;;;;;;6.40;5.80;;;;;;;;;;5103915;28;24801;-59
2021/09/20 10:38:20;;;;;;;5.90;5.30;;;;;;;;;;5104984;28;24412;-59
2021/09/20 10:41:05;;;;;;;6.60;6.10;;;;;;;;;;5101659;28;24382;-59
2021/09/20 10:43:31;;;;;;;5.80;5.40;;;;;;;;;;5099970;28;24412;-59
2021/09/20 10:45:56;;;;;;;6.03;5.63;;;;;;;;;;5101786;28;24417;-59
2021/09/20 10:48:24;;;;;;;6.80;6.30;;;;;;;;;;5103943;28;24825;-59
2021/09/20 10:51:03;;;;;;;6.78;6.18;;;;;;;;;;5105069;28;24423;-59
2021/09/20 10:53:32;;;;;;;6.78;6.28;;;;;;;;;;5103686;28;24801;-59
2021/09/20 10:56:04;;;;;;;8.30;7.68;;;;;;;;;;5101423;28;24473;-59
2021/09/20 10:58:33;;;;;;;7.40;6.90;;;;;;;;;;5099792;28;24949;-58
2021/09/20 11:01:10;;;;;;;7.57;7.07;;;;;;;;;;5101397;28;24431;-58
2021/09/20 11:03:39;;;;;;;8.32;7.72;;;;;;;;;;5103286;28;24803;-58
2021/09/20 11:06:28;;;;;;;8.23;7.63;;;;;;;;;;5104869;28;24413;-58
2021/09/20 11:09:01;;;;;;;8.52;7.93;;;;;;;;;;5093669;28;24479;-59
2021/09/20 11:14:08;;;;;;;7.50;6.90;;;;;;;;;;5117924;27;24496;-59
2021/09/20 11:16:52;;;;;;;7.95;7.35;;;;;;;;;;5119542;27;24400;-59
2021/09/20 11:19:31;;;;;;;8.75;8.15;;;;;;;;;;5118627;27;24412;-59
2021/09/20 11:22:02;;;;;;;8.77;8.07;;;;;;;;;;5124914;27;24736;-59
2021/09/20 11:24:29;;;;;;;8.10;7.50;;;;;;;;;;5123402;27;24409;-59
2021/09/20 11:26:54;;;;;;;7.63;7.13;;;;;;;;;;5125267;27;24971;-60
2021/09/20 11:29:22;;;;;;;8.68;8.07;;;;;;;;;;5119164;27;24422;-59
2021/09/20 11:31:48;;;;;;;8.63;8.03;;;;;;;;;;5119570;27;24549;-60
2021/09/20 11:34:25;;;;;;;8.83;8.23;;;;;;;;;;5123421;27;25143;-59
2021/09/20 11:36:50;;;;;;;8.30;7.70;;;;;;;;;;5124720;27;24450;-60
2021/09/20 11:39:19;;;;;;;10.20;9.40;;;;;;;;;;5123177;27;24424;-60
2021/09/20 11:41:46;;;;;;;9.40;8.80;;;;;;;;;;5120792;27;24489;-59
2021/09/20 11:44:14;;;;;;;10.48;9.77;;;;;;;;;;5121244;27;24412;-59
2021/09/20 11:46:39;;;;;;;10.60;9.80;;;;;;;;;;5121200;27;24441;-59
2021/09/20 11:49:06;;;;;;;10.50;9.70;;;;;;;;;;5122929;27;24465;-59
2021/09/20 11:51:32;;;;;;;10.30;9.50;;;;;;;;;;5122699;27;24397;-60
2021/09/20 11:53:57;;;;;;;9.20;8.45;;;;;;;;;;5124638;27;24425;-60
2021/09/20 11:56:23;;;;;;;9.50;8.80;;;;;;;;;;5118988;27;24525;-60
2021/09/20 11:58:53;;;;;;;8.95;8.35;;;;;;;;;;5118988;27;24421;-60
2021/09/20 12:01:22;;;;;;;10.02;9.32;;;;;;;;;;5122909;27;24939;-60
2021/09/20 12:03:48;;;;;;;9.77;9.00;;;;;;;;;;5122479;27;24764;-60
2021/09/20 12:06:14;;;;;;;8.20;7.60;;;;;;;;;;5124629;27;24401;-60
2021/09/20 12:08:39;;;;;;;8.60;8.10;;;;;;;;;;5122463;27;24388;-60
2021/09/20 12:11:06;;;;;;;8.23;7.63;;;;;;;;;;5120258;27;24935;-60
2021/09/20 12:13:34;;;;;;;9.10;8.45;;;;;;;;;;5119284;27;24442;-61
2021/09/20 12:16:04;;;;;;;9.25;8.55;;;;;;;;;;5117787;27;24469;-60
2021/09/20 12:18:30;;;;;;;8.13;7.53;;;;;;;;;;5121160;27;24520;-60
2021/09/20 12:20:56;;;;;;;8.60;8.00;;;;;;;;;;5123838;27;25015;-58
2021/09/20 12:23:21;;;;;;;8.30;7.70;;;;;;;;;;5122537;27;24456;-61
2021/09/20 12:25:49;;;;;;;8.67;7.93;;;;;;;;;;5120485;27;25027;-61
2021/09/20 12:28:17;;;;;;;8.23;7.55;;;;;;;;;;5117084;27;24466;-59
2021/09/20 12:30:50;;;;;;;8.07;7.47;;;;;;;;;;5097053;28;24406;-59
2021/09/20 12:33:16;;;;;;;6.43;6.03;;;;;;;;;;5110643;27;24528;-60
2021/09/20 12:35:41;;;;;;;7.10;6.60;;;;;;;;;;5123252;27;24488;-59
2021/09/20 12:38:20;;;;;;;6.40;5.80;;;;;;;;;;5123625;27;24639;-59
2021/09/20 12:40:47;;;;;;;5.90;5.40;;;;;;;;;;5119067;27;24417;-59
2021/09/20 12:43:20;;;;;;;6.35;5.85;;;;;;;;;;5119480;27;24964;-59
2021/09/20 12:45:46;;;;;;;6.10;5.60;;;;;;;;;;5118022;27;24525;-59
2021/09/20 12:48:12;;;;;;;5.30;4.90;;;;;;;;;;5121282;27;24480;-59
2021/09/20 12:50:39;;;;;;;5.47;5.07;;;;;;;;;;5122869;27;24373;-59
2021/09/20 12:53:04;;;;;;;4.90;4.50;;;;;;;;;;5122406;27;24956;-59
2021/09/20 12:55:33;;;;;;;4.87;4.47;;;;;;;;;;5120738;27;24443;-59
2021/09/20 12:57:58;;;;;;;4.70;4.40;;;;;;;;;;5117073;27;24498;-59
2021/09/20 13:00:35;;;;;;;5.20;4.80;;;;;;;;;;5118786;27;24761;-59
2021/09/20 13:03:14;;;;;;;4.35;3.95;;;;;;;;;;5123168;27;24389;-59
2021/09/20 13:05:46;;;;;;;4.30;4.00;;;;;;;;;;5120977;27;25463;-58
2021/09/20 13:08:13;;;;;;;4.57;4.25;;;;;;;;;;5122789;27;24485;-58
2021/09/20 13:10:42;;;;;;;4.20;3.90;;;;;;;;;;5117094;27;25336;-58
2021/09/20 13:13:08;;;;;;;4.40;4.10;;;;;;;;;;5119282;27;25002;-59
2021/09/20 13:15:34;;;;;;;3.30;3.10;;;;;;;;;;5122997;27;24800;-59
2021/09/20 13:18:00;;;;;;;4.50;4.10;;;;;;;;;;5122888;27;24753;-58
2021/09/20 13:20:26;;;;;;;5.30;4.70;;;;;;;;;;5120841;27;24477;-59
2021/09/20 13:22:55;;;;;;;4.43;4.13;;;;;;;;;;5119166;27;24737;-59
2021/09/20 13:25:22;;;;;;;4.10;3.80;;;;;;;;;;5119087;27;24491;-58
2021/09/20 13:27:48;;;;;;;4.83;4.33;;;;;;;;;;5123164;27;24393;-58
2021/09/20 13:30:16;;;;;;;4.50;4.10;;;;;;;;;;5122749;27;24459;-59
2021/09/20 13:32:45;;;;;;;5.00;4.50;;;;;;;;;;5122655;28;24458;-59
2021/09/20 13:35:20;;;;;;;5.13;4.63;;;;;;;;;;5121306;28;24407;-59
2021/09/20 13:37:45;;;;;;;5.20;4.80;;;;;;;;;;5116204;28;24401;-59
2021/09/20 13:40:11;;;;;;;3.70;3.40;;;;;;;;;;5116686;28;24461;-59
2021/09/20 13:42:36;;;;;;;4.00;3.70;;;;;;;;;;5122052;27;24725;-59
2021/09/20 13:45:01;;;;;;;3.90;3.60;;;;;;;;;;5127175;27;24500;-59
2021/09/20 13:47:28;;;;;;;3.80;3.50;;;;;;;;;;5126948;27;24479;-59
2021/09/20 13:49:54;;;;;;;3.88;3.58;;;;;;;;;;5125165;27;24408;-59
2021/09/20 13:52:19;;;;;;;3.53;3.22;;;;;;;;;;5123227;27;24401;-60
2021/09/20 13:54:44;;;;;;;3.13;2.93;;;;;;;;;;5122609;27;24464;-61
2021/09/20 13:57:10;;;;;;;3.00;2.80;;;;;;;;;;5125507;27;24525;-60
2021/09/20 13:59:35;;;;;;;3.42;3.13;;;;;;;;;;5124724;27;24458;-60
2021/09/20 14:02:00;;;;;;;3.22;2.92;;;;;;;;;;5124780;27;24409;-61
2021/09/20 14:04:25;;;;;;;2.88;2.67;;;;;;;;;;5121858;27;24547;-61
2021/09/20 14:06:50;;;;;;;2.88;2.67;;;;;;;;;;5126605;27;24413;-61
2021/09/20 14:09:15;;;;;;;2.60;2.40;;;;;;;;;;5126427;27;24912;-59
2021/09/20 14:11:40;;;;;;;3.33;3.10;;;;;;;;;;5124303;27;24480;-61
2021/09/20 14:14:06;;;;;;;2.90;2.70;;;;;;;;;;5122545;27;25106;-61
2021/09/20 14:16:33;;;;;;;3.17;2.97;;;;;;;;;;5121519;27;24404;-58
2021/09/20 14:19:00;;;;;;;2.80;2.60;;;;;;;;;;5121099;27;24381;-60
2021/09/20 14:21:25;;;;;;;2.75;2.55;;;;;;;;;;5124625;27;24393;-61
2021/09/20 14:23:50;;;;;;;2.97;2.70;;;;;;;;;;5126518;27;24396;-61
2021/09/20 14:26:15;;;;;;;3.30;3.10;;;;;;;;;;5124705;27;24433;-61
2021/09/20 14:28:46;;;;;;;3.30;3.00;;;;;;;;;;5122226;27;24934;-60
2021/09/20 14:31:11;;;;;;;2.70;2.50;;;;;;;;;;5122792;27;24394;-60
2021/09/20 14:33:36;;;;;;;2.50;2.30;;;;;;;;;;5120368;27;24425;-60
2021/09/20 14:36:01;;;;;;;3.20;3.00;;;;;;;;;;5125884;27;24455;-60
2021/09/20 14:38:27;;;;;;;2.83;2.63;;;;;;;;;;5124328;27;24877;-60
2021/09/20 14:40:53;;;;;;;2.60;2.40;;;;;;;;;;5122466;27;24421;-60